Time;durP1;ratioP1;P1;durP2;ratioP2;P2;SDS_P1;SDS_P2;PMS_P1;PMS_P2;Temp;Humidity;BMP_temperature;BMP_pressure;BME280_temperature;BME280_humidity;BME280_pressure;Samples;Min_cycle;Max_cycle;Signal;HPM_P1;HPM_P2
2021/04/27 01:18:49;;;;;;;3.65;2.45;;;6.90;47.00;;;;;;4704880;26;20288;-81
2021/04/27 01:21:17;;;;;;;2.42;2.22;;;6.90;46.90;;;;;;4932850;29;20206;-81
2021/04/27 01:24:10;;;;;;;3.80;2.95;;;6.90;46.90;;;;;;4943390;29;20213;-81
2021/04/27 01:26:39;;;;;;;5.93;3.15;;;6.90;47.00;;;;;;4943568;29;20225;-82
2021/04/27 01:29:08;;;;;;;4.03;3.08;;;6.90;47.10;;;;;;4942809;29;20210;-83
2021/04/27 01:31:36;;;;;;;4.43;3.58;;;6.80;47.30;;;;;;4942997;29;20230;-82
2021/04/27 01:34:05;;;;;;;3.22;2.90;;;6.80;47.60;;;;;;4943536;29;20218;-83
2021/04/27 01:36:33;;;;;;;3.25;2.65;;;6.80;47.70;;;;;;4942907;29;20245;-84
2021/04/27 01:39:00;;;;;;;2.90;2.60;;;6.80;47.70;;;;;;4943789;29;20206;-83
2021/04/27 01:41:26;;;;;;;2.60;2.40;;;6.70;47.80;;;;;;4943077;29;20231;-83
2021/04/27 01:43:54;;;;;;;2.60;2.45;;;6.60;48.30;;;;;;4942906;29;20210;-82
2021/04/27 01:46:21;;;;;;;2.65;2.45;;;6.70;48.20;;;;;;4943455;29;20725;-83
2021/04/27 01:48:48;;;;;;;2.95;2.75;;;6.60;48.30;;;;;;4942874;29;20209;-83
2021/04/27 01:51:15;;;;;;;2.50;2.30;;;6.60;48.40;;;;;;4942999;29;20220;-83
2021/04/27 01:53:43;;;;;;;2.88;2.63;;;6.60;48.50;;;;;;4943115;29;20242;-82
2021/04/27 01:56:09;;;;;;;4.05;3.42;;;6.50;48.50;;;;;;4942826;29;20230;-83
2021/04/27 01:58:36;;;;;;;2.67;2.47;;;6.50;48.80;;;;;;4942636;29;20751;-83
2021/04/27 02:01:04;;;;;;;4.10;3.35;;;6.50;48.90;;;;;;4943379;29;20273;-83
2021/04/27 02:03:38;;;;;;;3.85;2.85;;;6.40;48.80;;;;;;4942420;29;20237;-83
2021/04/27 02:06:05;;;;;;;3.38;3.00;;;6.40;48.80;;;;;;4942842;29;20237;-83
2021/04/27 02:08:31;;;;;;;3.80;3.58;;;6.30;49.10;;;;;;4942333;29;20232;-83
2021/04/27 02:10:58;;;;;;;3.13;2.80;;;6.30;49.30;;;;;;4942803;29;20667;-83
2021/04/27 02:13:25;;;;;;;2.90;2.70;;;6.20;49.40;;;;;;4942508;29;20551;-83
2021/04/27 02:15:51;;;;;;;4.18;2.97;;;6.20;49.50;;;;;;4943206;29;20281;-83
2021/04/27 02:18:23;;;;;;;3.38;2.75;;;6.00;49.70;;;;;;4942301;29;20214;-82
2021/04/27 02:20:51;;;;;;;2.97;2.42;;;6.00;50.00;;;;;;4942620;29;20229;-83
2021/04/27 02:23:19;;;;;;;3.22;2.95;;;6.00;50.20;;;;;;4942047;29;20230;-83
2021/04/27 02:25:47;;;;;;;2.75;2.53;;;6.00;50.30;;;;;;4941835;29;20238;-83
2021/04/27 02:28:14;;;;;;;5.28;2.58;;;6.10;50.40;;;;;;4941503;29;20214;-83
2021/04/27 02:30:40;;;;;;;3.95;3.40;;;6.10;50.60;;;;;;4942078;29;20213;-82
2021/04/27 02:33:08;;;;;;;2.65;2.45;;;6.10;50.80;;;;;;4941665;29;20206;-83
2021/04/27 02:35:35;;;;;;;4.00;3.55;;;6.10;50.80;;;;;;4941682;29;20230;-83
2021/04/27 02:38:02;;;;;;;3.63;2.60;;;6.10;50.90;;;;;;4941870;29;20215;-82
2021/04/27 02:40:29;;;;;;;3.05;2.70;;;6.00;50.80;;;;;;4941734;29;20631;-83
2021/04/27 02:42:58;;;;;;;3.80;2.80;;;6.00;51.00;;;;;;4941859;29;20253;-83
2021/04/27 02:45:31;;;;;;;4.15;3.75;;;5.90;51.20;;;;;;4941744;29;20240;-82
2021/04/27 02:48:05;;;;;;;3.33;3.00;;;5.90;51.40;;;;;;4941490;29;20304;-83
2021/04/27 02:50:32;;;;;;;4.80;2.75;;;5.80;51.40;;;;;;4940749;29;20224;-83
2021/04/27 02:52:59;;;;;;;3.33;2.80;;;5.80;51.50;;;;;;4940906;29;20205;-83
2021/04/27 02:55:25;;;;;;;4.38;3.05;;;5.90;51.60;;;;;;4941316;29;20222;-83
2021/04/27 02:57:52;;;;;;;3.30;2.60;;;5.90;51.60;;;;;;4941563;29;20213;-83
2021/04/27 03:00:19;;;;;;;3.47;3.17;;;5.90;51.80;;;;;;4942126;29;20206;-83
2021/04/27 03:02:45;;;;;;;3.47;3.10;;;5.80;51.90;;;;;;4941458;29;20277;-83
2021/04/27 03:05:12;;;;;;;2.60;2.40;;;5.80;52.00;;;;;;4941603;29;20238;-84
2021/04/27 03:07:38;;;;;;;5.00;2.88;;;5.90;52.10;;;;;;4941533;29;20220;-82
2021/04/27 03:10:07;;;;;;;3.25;2.92;;;5.90;52.20;;;;;;4941500;29;20233;-83
2021/04/27 03:12:33;;;;;;;4.13;3.83;;;5.90;52.30;;;;;;4941019;29;20206;-83
2021/04/27 03:15:00;;;;;;;3.25;2.95;;;5.90;52.20;;;;;;4941128;29;20210;-83
2021/04/27 03:17:27;;;;;;;3.38;3.10;;;5.90;52.40;;;;;;4941118;29;20226;-82
2021/04/27 03:19:53;;;;;;;2.90;2.70;;;5.80;52.60;;;;;;4941060;29;20210;-83
2021/04/27 03:22:20;;;;;;;4.68;3.05;;;5.70;52.90;;;;;;4941124;29;20229;-83
2021/04/27 03:24:46;;;;;;;2.75;2.55;;;5.60;53.10;;;;;;4942195;29;20210;-83
2021/04/27 03:27:13;;;;;;;3.78;3.25;;;5.60;53.30;;;;;;4940863;29;20257;-83
2021/04/27 03:29:39;;;;;;;3.47;2.53;;;5.60;53.50;;;;;;4940948;29;20213;-83
2021/04/27 03:32:06;;;;;;;3.00;2.83;;;5.60;53.50;;;;;;4940490;29;20229;-83
2021/04/27 03:34:32;;;;;;;4.15;3.75;;;5.50;53.60;;;;;;4941426;29;20584;-83
2021/04/27 03:36:58;;;;;;;4.85;3.50;;;5.60;53.70;;;;;;4941384;29;20230;-82
2021/04/27 03:39:25;;;;;;;4.07;3.75;;;5.60;53.80;;;;;;4941469;29;20225;-82
2021/04/27 03:41:51;;;;;;;3.90;3.38;;;5.60;53.70;;;;;;4940598;29;20376;-82
2021/04/27 03:44:21;;;;;;;3.28;2.90;;;5.60;53.80;;;;;;4940740;29;20220;-82
2021/04/27 03:46:47;;;;;;;3.70;3.25;;;5.60;53.90;;;;;;4940823;29;20229;-82
2021/04/27 03:49:13;;;;;;;4.20;2.70;;;5.60;54.20;;;;;;4941291;29;20221;-83
2021/04/27 03:51:40;;;;;;;5.68;3.30;;;5.50;54.50;;;;;;4940847;29;20230;-82
2021/04/27 03:54:06;;;;;;;3.58;3.08;;;5.50;54.70;;;;;;4941315;29;20250;-83
2021/04/27 03:56:35;;;;;;;2.72;2.53;;;5.50;54.80;;;;;;4941111;29;20234;-83
2021/04/27 03:59:02;;;;;;;3.97;3.10;;;5.40;55.00;;;;;;4940532;29;20209;-83
2021/04/27 04:01:29;;;;;;;3.50;2.53;;;5.50;55.20;;;;;;4940243;29;20206;-83
2021/04/27 04:03:55;;;;;;;3.35;3.05;;;5.50;55.30;;;;;;4941008;29;20209;-83
2021/04/27 04:06:21;;;;;;;4.60;3.20;;;5.50;55.20;;;;;;4940848;29;20638;-83
2021/04/27 04:08:47;;;;;;;3.30;2.92;;;5.50;55.40;;;;;;4940520;29;20373;-82
2021/04/27 04:11:14;;;;;;;5.20;3.20;;;5.50;55.50;;;;;;4940559;29;20750;-83
2021/04/27 04:13:40;;;;;;;3.97;3.45;;;5.50;55.50;;;;;;4940498;29;20230;-82
2021/04/27 04:16:07;;;;;;;3.78;2.85;;;5.60;55.50;;;;;;4940656;29;20285;-83
2021/04/27 04:18:34;;;;;;;4.60;2.88;;;5.60;55.50;;;;;;4940921;29;20210;-83
2021/04/27 04:21:00;;;;;;;4.53;3.65;;;5.60;55.50;;;;;;4940733;29;20220;-83
2021/04/27 04:23:27;;;;;;;3.60;3.30;;;5.50;55.70;;;;;;4940979;29;20206;-83
2021/04/27 04:25:53;;;;;;;4.32;3.35;;;5.50;56.00;;;;;;4940513;29;20256;-83
2021/04/27 04:28:19;;;;;;;4.35;3.95;;;5.50;56.40;;;;;;4940010;29;20214;-83
2021/04/27 04:30:46;;;;;;;4.60;4.20;;;5.50;56.30;;;;;;4940013;29;20213;-82
2021/04/27 04:33:12;;;;;;;3.85;3.53;;;5.60;56.40;;;;;;4940368;29;20237;-82
2021/04/27 04:35:39;;;;;;;3.70;3.40;;;5.50;56.50;;;;;;4939805;29;20233;-82
2021/04/27 04:38:06;;;;;;;4.35;3.95;;;5.50;56.50;;;;;;4940257;29;20273;-83
2021/04/27 04:40:33;;;;;;;3.80;3.55;;;5.50;56.70;;;;;;4940108;29;20209;-83
2021/04/27 04:43:00;;;;;;;3.40;3.10;;;5.50;56.70;;;;;;4940367;29;20233;-83
2021/04/27 04:45:26;;;;;;;5.68;3.42;;;5.50;56.90;;;;;;4940646;29;20304;-82
2021/04/27 04:47:53;;;;;;;5.57;3.58;;;5.50;56.90;;;;;;4940930;29;20216;-83
2021/04/27 04:50:21;;;;;;;3.10;2.90;;;5.40;57.20;;;;;;4940615;29;20222;-83
2021/04/27 04:52:48;;;;;;;8.00;4.32;;;5.50;57.30;;;;;;4944861;29;20236;-83
2021/04/27 04:55:15;;;;;;;5.15;3.50;;;5.50;57.50;;;;;;4946826;29;20233;-82
2021/04/27 04:57:42;;;;;;;4.05;3.70;;;5.50;57.70;;;;;;4946125;29;20221;-83
2021/04/27 05:00:11;;;;;;;3.63;3.35;;;5.50;57.90;;;;;;4946204;29;20707;-82
2021/04/27 05:02:38;;;;;;;5.03;4.15;;;5.50;57.90;;;;;;4945719;29;20741;-83
2021/04/27 05:05:05;;;;;;;4.22;3.63;;;5.50;57.90;;;;;;4946045;29;20296;-83
2021/04/27 05:07:40;;;;;;;3.38;3.08;;;5.50;58.00;;;;;;4946086;29;20220;-82
2021/04/27 05:10:08;;;;;;;4.95;4.30;;;5.60;58.10;;;;;;4945718;29;20213;-83
2021/04/27 05:12:34;;;;;;;6.53;4.03;;;5.60;58.10;;;;;;4946046;29;20248;-82
2021/04/27 05:15:00;;;;;;;3.78;3.20;;;5.60;58.10;;;;;;4946041;29;20214;-83
2021/04/27 05:17:27;;;;;;;6.28;3.70;;;5.70;58.10;;;;;;4946329;29;20221;-83
2021/04/27 05:19:53;;;;;;;5.30;3.40;;;5.70;58.10;;;;;;4945814;29;20261;-82
2021/04/27 05:22:20;;;;;;;3.20;2.88;;;5.80;58.10;;;;;;4946175;29;20292;-83
2021/04/27 05:24:46;;;;;;;4.30;3.90;;;5.80;58.10;;;;;;4945967;29;20205;-83
2021/04/27 05:27:13;;;;;;;9.07;4.80;;;5.80;58.00;;;;;;4946295;29;20734;-83
2021/04/27 05:29:40;;;;;;;5.82;5.10;;;5.90;57.90;;;;;;4946223;29;20209;-82
2021/04/27 05:32:06;;;;;;;4.85;4.38;;;6.00;57.90;;;;;;4946315;29;20230;-83
2021/04/27 05:34:34;;;;;;;6.53;3.35;;;6.10;57.90;;;;;;4946312;29;20205;-81
2021/04/27 05:37:00;;;;;;;6.35;3.58;;;6.20;58.00;;;;;;4947622;29;20233;-83
2021/04/27 05:39:27;;;;;;;4.53;4.03;;;6.20;58.10;;;;;;4948353;29;20205;-82
2021/04/27 05:41:53;;;;;;;6.35;3.60;;;6.30;57.80;;;;;;4949012;29;20210;-82
2021/04/27 05:44:20;;;;;;;4.70;4.15;;;6.40;57.70;;;;;;4949513;29;20225;-83
2021/04/27 05:46:47;;;;;;;4.28;3.15;;;6.40;57.50;;;;;;4964112;29;20221;-81
2021/04/27 05:49:14;;;;;;;5.70;4.28;;;6.50;57.40;;;;;;4964399;28;20204;-80
2021/04/27 05:51:40;;;;;;;4.80;4.35;;;6.60;57.30;;;;;;4963974;29;20259;-80
2021/04/27 05:54:07;;;;;;;7.38;4.28;;;6.80;57.20;;;;;;4957260;29;20210;-82
2021/04/27 05:56:35;;;;;;;5.22;4.15;;;6.90;56.80;;;;;;4947570;29;20230;-82
2021/04/27 05:59:01;;;;;;;5.40;4.00;;;7.10;56.30;;;;;;4948215;29;20214;-83
2021/04/27 06:01:28;;;;;;;4.43;4.05;;;7.20;56.10;;;;;;4946984;29;20771;-83
2021/04/27 06:03:55;;;;;;;5.07;4.63;;;7.40;55.70;;;;;;4944539;29;20656;-83
2021/04/27 06:06:21;;;;;;;4.15;3.72;;;7.50;55.40;;;;;;4944499;29;20237;-83
2021/04/27 06:08:48;;;;;;;4.10;3.70;;;7.60;55.40;;;;;;4944793;29;20589;-83
2021/04/27 06:11:17;;;;;;;5.00;3.90;;;7.70;56.10;;;;;;4944910;29;20667;-83
2021/04/27 06:13:45;;;;;;;4.95;4.45;;;7.90;56.00;;;;;;4944315;29;20490;-83
2021/04/27 06:16:12;;;;;;;4.18;3.88;;;8.00;55.90;;;;;;4943746;29;20239;-82
2021/04/27 06:18:40;;;;;;;3.88;3.67;;;8.20;55.00;;;;;;4944434;29;20211;-82
2021/04/27 06:21:07;;;;;;;5.18;4.70;;;8.30;54.90;;;;;;4933757;29;20205;-82
2021/04/27 06:23:36;;;;;;;5.18;4.78;;;8.40;54.80;;;;;;4934186;29;20200;-82
2021/04/27 06:26:03;;;;;;;4.72;4.25;;;8.50;54.70;;;;;;4933153;29;20234;-83
2021/04/27 06:28:29;;;;;;;6.25;4.50;;;8.60;54.10;;;;;;4932342;29;20214;-82
2021/04/27 06:30:55;;;;;;;5.60;4.22;;;8.60;53.80;;;;;;4937349;29;20206;-83
2021/04/27 06:33:21;;;;;;;4.68;4.05;;;8.80;53.60;;;;;;4941063;29;20223;-83
2021/04/27 06:35:48;;;;;;;4.73;4.33;;;8.90;53.60;;;;;;4934292;29;20253;-82
2021/04/27 06:38:17;;;;;;;5.45;5.03;;;8.90;53.40;;;;;;4936245;29;20469;-83
2021/04/27 06:40:47;;;;;;;5.83;4.50;;;9.00;54.10;;;;;;4935647;29;20271;-83
2021/04/27 06:43:19;;;;;;;5.50;5.00;;;9.10;53.30;;;;;;4935159;29;20514;-83
2021/04/27 06:48:16;;;;;;;5.07;4.67;;;9.20;52.70;;;;;;4921480;29;20856;-79
2021/04/27 06:50:43;;;;;;;5.10;4.27;;;9.30;52.60;;;;;;4924242;29;20457;-79
2021/04/27 06:53:11;;;;;;;5.63;5.13;;;9.30;52.70;;;;;;4923243;29;20500;-79
2021/04/27 06:55:37;;;;;;;5.87;4.87;;;9.30;52.00;;;;;;4923054;29;20475;-80
2021/04/27 06:58:05;;;;;;;7.87;5.13;;;9.30;52.50;;;;;;4923026;29;20456;-80
2021/04/27 07:00:32;;;;;;;8.80;5.93;;;9.20;52.70;;;;;;4924731;29;20480;-81
2021/04/27 07:03:01;;;;;;;5.13;4.63;;;9.30;52.80;;;;;;4925105;29;21169;-81
2021/04/27 07:05:28;;;;;;;5.93;5.37;;;9.30;52.50;;;;;;4924889;29;21050;-81
2021/04/27 07:07:54;;;;;;;4.70;4.18;;;9.40;52.40;;;;;;4924991;29;20576;-80
2021/04/27 07:10:22;;;;;;;6.13;5.60;;;9.40;52.70;;;;;;4924830;29;20595;-80
2021/04/27 07:12:48;;;;;;;7.20;5.00;;;9.40;52.90;;;;;;4924169;29;20239;-81
2021/04/27 07:15:15;;;;;;;6.20;5.37;;;9.50;52.80;;;;;;4924382;29;20486;-81
2021/04/27 07:17:42;;;;;;;5.85;5.18;;;9.50;52.00;;;;;;4924180;29;20458;-81
2021/04/27 07:20:10;;;;;;;6.00;4.83;;;9.40;52.00;;;;;;4924370;29;20227;-81
2021/04/27 07:22:41;;;;;;;5.30;4.90;;;9.30;52.80;;;;;;4923357;29;20445;-81
2021/04/27 07:25:09;;;;;;;5.82;5.43;;;9.20;54.10;;;;;;4924155;29;20504;-81
2021/04/27 07:27:39;;;;;;;5.80;5.27;;;9.30;54.30;;;;;;4924147;29;20222;-81
2021/04/27 07:30:07;;;;;;;5.93;5.23;;;9.40;53.10;;;;;;4924356;29;20464;-80
2021/04/27 07:32:33;;;;;;;5.73;5.00;;;9.40;53.90;;;;;;4923995;29;20493;-80
2021/04/27 07:35:00;;;;;;;7.40;5.33;;;9.50;53.70;;;;;;4923632;29;20453;-80
2021/04/27 07:37:26;;;;;;;6.03;5.47;;;9.60;53.70;;;;;;4924086;29;20966;-80
2021/04/27 07:39:54;;;;;;;6.07;5.60;;;9.70;53.70;;;;;;4923350;29;20813;-80
2021/04/27 07:42:21;;;;;;;5.90;5.40;;;9.80;53.50;;;;;;4923644;29;20826;-80
2021/04/27 07:44:52;;;;;;;9.13;5.90;;;10.00;52.00;;;;;;4923750;29;20469;-80
2021/04/27 07:47:19;;;;;;;8.83;6.00;;;10.10;51.30;;;;;;4923206;29;20465;-79
2021/04/27 07:49:46;;;;;;;9.63;6.87;;;9.90;51.00;;;;;;4924093;29;20453;-79
2021/04/27 07:52:13;;;;;;;6.50;6.00;;;10.00;50.30;;;;;;4924098;29;20492;-80
2021/04/27 07:54:40;;;;;;;5.97;5.47;;;10.10;50.60;;;;;;4923260;29;20445;-80
2021/04/27 07:57:06;;;;;;;6.43;5.80;;;10.20;50.80;;;;;;4923611;29;20505;-80
2021/04/27 07:59:33;;;;;;;6.50;5.90;;;10.40;51.00;;;;;;4923850;29;20458;-80
2021/04/27 08:02:00;;;;;;;7.00;6.30;;;10.50;51.00;;;;;;4923158;29;20918;-80
2021/04/27 08:04:28;;;;;;;6.93;6.33;;;10.70;51.60;;;;;;4923405;29;20454;-80
2021/04/27 08:07:06;;;;;;;6.70;6.10;;;10.80;49.70;;;;;;4923256;29;20481;-80
2021/04/27 08:09:53;;;;;;;6.67;5.93;;;10.90;50.40;;;;;;4923583;29;20558;-80
2021/04/27 08:12:22;;;;;;;6.73;6.13;;;10.80;49.80;;;;;;4923180;29;20492;-80
2021/04/27 08:14:49;;;;;;;7.23;5.67;;;10.90;50.00;;;;;;4923989;29;20612;-80
2021/04/27 08:17:16;;;;;;;7.90;7.20;;;10.90;49.60;;;;;;4923212;29;20462;-80
2021/04/27 08:19:42;;;;;;;8.47;6.20;;;10.80;50.20;;;;;;4923021;29;20999;-80
2021/04/27 08:22:08;;;;;;;8.03;6.10;;;10.70;50.20;;;;;;4923351;29;20431;-80
2021/04/27 08:24:36;;;;;;;6.70;5.97;;;10.70;49.70;;;;;;4923416;29;20466;-80
2021/04/27 08:27:02;;;;;;;6.53;6.13;;;10.70;50.70;;;;;;4923087;29;20482;-80
2021/04/27 08:29:29;;;;;;;7.00;5.33;;;10.80;49.90;;;;;;4922896;29;20472;-80
2021/04/27 08:31:55;;;;;;;6.60;6.03;;;10.90;50.10;;;;;;4922213;29;20961;-80
2021/04/27 08:34:22;;;;;;;6.67;6.07;;;11.00;50.40;;;;;;4923170;29;20469;-80
2021/04/27 08:36:50;;;;;;;7.10;6.50;;;11.00;49.80;;;;;;4922873;29;20478;-79
2021/04/27 08:39:16;;;;;;;8.60;6.73;;;11.10;50.40;;;;;;4923101;29;20458;-80
2021/04/27 08:41:44;;;;;;;6.13;5.67;;;11.20;49.80;;;;;;4922592;29;20461;-80
2021/04/27 08:44:11;;;;;;;6.80;6.00;;;11.20;49.80;;;;;;4922659;29;20464;-80
2021/04/27 08:46:37;;;;;;;8.37;6.13;;;11.10;49.50;;;;;;4922847;29;21009;-80
2021/04/27 08:49:04;;;;;;;6.90;5.60;;;11.10;49.50;;;;;;4923288;29;20453;-80
2021/04/27 08:51:31;;;;;;;5.90;5.33;;;11.10;49.30;;;;;;4923008;29;20885;-80
2021/04/27 08:53:57;;;;;;;8.87;6.03;;;11.20;50.70;;;;;;4923001;29;20508;-80
2021/04/27 08:56:24;;;;;;;6.83;6.20;;;11.10;49.40;;;;;;4922773;29;20493;-80
2021/04/27 08:58:52;;;;;;;6.73;6.13;;;11.20;49.70;;;;;;4923635;29;20446;-80
2021/04/27 09:01:19;;;;;;;7.73;7.03;;;11.20;50.10;;;;;;4922822;29;20454;-80
2021/04/27 09:03:47;;;;;;;7.20;6.47;;;11.40;50.50;;;;;;4923061;29;20484;-80
2021/04/27 09:06:15;;;;;;;7.33;6.50;;;11.50;49.70;;;;;;4922437;29;20568;-80
2021/04/27 09:08:42;;;;;;;7.67;6.80;;;11.70;49.60;;;;;;4923112;29;20828;-80
2021/04/27 09:11:24;;;;;;;6.93;6.20;;;11.70;48.70;;;;;;4923151;29;20467;-80
2021/04/27 09:14:06;;;;;;;11.20;6.60;;;11.80;48.70;;;;;;4922949;29;20544;-79
2021/04/27 09:16:33;;;;;;;6.67;5.90;;;12.00;48.80;;;;;;4922414;29;20482;-80
2021/04/27 09:18:59;;;;;;;7.13;6.53;;;12.10;48.50;;;;;;4922785;29;20462;-80
2021/04/27 09:21:33;;;;;;;7.23;6.57;;;12.30;48.30;;;;;;4922218;29;20826;-80
2021/04/27 09:24:12;;;;;;;6.73;6.13;;;12.40;48.20;;;;;;4922217;29;20451;-80
2021/04/27 09:26:40;;;;;;;7.30;6.30;;;12.50;47.80;;;;;;4923575;29;20486;-80
2021/04/27 09:29:06;;;;;;;7.97;7.17;;;12.60;47.20;;;;;;4923034;29;20473;-82
2021/04/27 09:31:34;;;;;;;6.93;6.33;;;12.80;47.70;;;;;;4923177;29;20462;-80
2021/04/27 09:34:19;;;;;;;7.70;6.90;;;13.00;47.90;;;;;;4922625;29;20486;-80
2021/04/27 09:36:46;;;;;;;8.00;7.20;;;13.20;47.20;;;;;;4922603;29;20475;-80
2021/04/27 09:39:14;;;;;;;7.23;6.50;;;13.50;46.50;;;;;;4925256;29;20486;-81
2021/04/27 09:41:40;;;;;;;8.93;8.13;;;13.60;46.40;;;;;;4925888;29;20476;-80
2021/04/27 09:44:25;;;;;;;8.60;7.80;;;13.60;46.40;;;;;;4925541;29;20454;-80
2021/04/27 09:47:06;;;;;;;9.87;8.37;;;13.70;46.20;;;;;;4925658;29;20496;-80
2021/04/27 09:49:33;;;;;;;9.03;7.53;;;13.80;47.50;;;;;;4926268;29;20454;-80
2021/04/27 09:51:59;;;;;;;7.20;6.50;;;13.90;46.30;;;;;;4925675;29;20529;-80
2021/04/27 09:54:26;;;;;;;10.90;7.40;;;13.90;46.50;;;;;;4926500;29;20462;-80
2021/04/27 09:56:54;;;;;;;7.23;6.53;;;14.10;45.60;;;;;;4925552;29;20474;-79
2021/04/27 09:59:23;;;;;;;7.03;6.40;;;14.30;45.80;;;;;;4925559;29;20467;-80
2021/04/27 10:01:51;;;;;;;9.27;6.77;;;14.40;45.70;;;;;;4925253;29;20565;-79
2021/04/27 10:04:17;;;;;;;8.47;7.30;;;14.60;46.60;;;;;;4926152;29;20452;-80
2021/04/27 10:06:44;;;;;;;8.90;8.10;;;14.70;46.20;;;;;;4925545;29;20821;-80
2021/04/27 10:09:12;;;;;;;7.43;6.83;;;14.90;46.10;;;;;;4926030;29;20490;-80
2021/04/27 10:11:40;;;;;;;8.57;7.80;;;15.00;44.00;;;;;;4925153;29;20462;-80
2021/04/27 10:14:07;;;;;;;9.70;7.40;;;15.10;44.60;;;;;;4925489;29;20490;-81
2021/04/27 10:16:35;;;;;;;8.03;7.07;;;15.20;46.30;;;;;;4925246;29;20479;-80
2021/04/27 10:19:02;;;;;;;8.60;7.70;;;15.40;44.30;;;;;;4925483;29;20467;-80
2021/04/27 10:21:29;;;;;;;8.30;7.50;;;15.40;43.70;;;;;;4925219;29;20485;-80
2021/04/27 10:23:59;;;;;;;7.97;7.17;;;15.40;43.30;;;;;;4925692;29;20798;-82
2021/04/27 10:26:31;;;;;;;10.47;9.47;;;15.40;43.50;;;;;;4925442;29;20473;-81
2021/04/27 10:29:08;;;;;;;8.13;7.33;;;15.50;43.20;;;;;;4925025;29;20517;-82
2021/04/27 10:31:36;;;;;;;7.93;7.33;;;15.60;43.60;;;;;;4922213;29;20464;-80
2021/04/27 10:34:06;;;;;;;8.73;7.87;;;15.70;42.80;;;;;;4935097;29;20496;-79
2021/04/27 10:36:35;;;;;;;8.03;7.20;;;15.60;41.00;;;;;;4941777;29;20504;-80
2021/04/27 10:39:04;;;;;;;7.87;7.27;;;15.60;42.00;;;;;;4927957;29;20454;-81
2021/04/27 10:41:50;;;;;;;8.93;8.07;;;15.40;41.80;;;;;;4923381;29;20456;-81
2021/04/27 10:44:17;;;;;;;9.20;7.80;;;15.70;42.70;;;;;;4906123;29;20446;-81
2021/04/27 10:46:47;;;;;;;10.03;8.10;;;15.90;42.90;;;;;;4905509;29;20508;-81
2021/04/27 10:49:42;;;;;;;8.47;7.63;;;16.10;42.70;;;;;;4907296;29;20458;-81
2021/04/27 10:52:26;;;;;;;8.30;7.60;;;16.30;42.70;;;;;;4922574;29;20984;-82
2021/04/27 10:54:52;;;;;;;9.30;8.23;;;16.60;43.20;;;;;;4923022;29;20523;-83
2021/04/27 10:57:19;;;;;;;9.27;8.00;;;16.90;42.80;;;;;;4922922;29;20548;-82
2021/04/27 10:59:55;;;;;;;8.43;7.57;;;17.30;42.90;;;;;;4934324;29;20544;-82
2021/04/27 11:02:25;;;;;;;9.50;8.50;;;17.60;40.10;;;;;;4941805;29;21111;-82
2021/04/27 11:04:52;;;;;;;9.10;8.23;;;17.90;38.90;;;;;;4928311;29;20825;-82
2021/04/27 11:07:34;;;;;;;9.33;8.43;;;18.30;39.80;;;;;;4928033;29;20458;-82
2021/04/27 11:10:21;;;;;;;8.70;7.90;;;18.60;37.80;;;;;;4923621;29;20458;-82
2021/04/27 11:12:54;;;;;;;9.60;8.53;;;18.90;37.20;;;;;;4923619;29;20510;-82
2021/04/27 11:15:25;;;;;;;9.30;8.27;;;19.10;37.40;;;;;;4923300;29;20479;-81
2021/04/27 11:18:07;;;;;;;8.40;7.70;;;19.60;37.20;;;;;;4937634;29;20549;-79
2021/04/27 11:21:12;;;;;;;7.90;7.23;;;20.20;36.60;;;;;;4941138;28;20439;-82
2021/04/27 11:23:44;;;;;;;8.43;7.57;;;21.00;35.20;;;;;;4921220;29;20455;-83
2021/04/27 11:26:50;;;;;;;8.87;7.80;;;21.70;33.30;;;;;;4924419;29;20475;-83
2021/04/27 11:29:26;;;;;;;9.40;8.43;;;22.40;32.40;;;;;;4919147;29;20511;-83
2021/04/27 11:32:08;;;;;;;7.07;6.47;;;22.90;32.00;;;;;;4923566;29;20459;-83
2021/04/27 11:34:54;;;;;;;7.90;7.30;;;23.30;29.70;;;;;;4924692;29;20448;-84
2021/04/27 11:47:57;;;;;;;9.07;8.20;;;26.30;26.90;;;;;;5093259;23;20527;-85
2021/04/27 11:50:25;;;;;;;8.70;7.97;;;26.60;27.10;;;;;;4942801;29;20916;-86
2021/04/27 12:37:16;;;;;;;11.20;10.20;;;29.70;23.50;;;;;;4857702;29;20436;-85
2021/04/27 13:30:52;;;;;;;10.53;9.60;;;32.70;22.70;;;;;;4044959;23;20523;-85
2021/04/27 13:33:43;;;;;;;10.67;9.63;;;32.20;21.20;;;;;;4943796;29;20506;-83
2021/04/27 13:36:13;;;;;;;10.17;9.17;;;31.10;22.80;;;;;;4936868;29;20495;-86
2021/04/27 13:38:41;;;;;;;9.20;8.37;;;31.20;23.20;;;;;;4946537;29;20464;-85
2021/04/27 13:41:10;;;;;;;8.93;8.03;;;31.50;22.00;;;;;;4944623;29;20464;-85
2021/04/27 13:43:44;;;;;;;9.80;9.00;;;31.70;23.10;;;;;;4940185;29;20484;-86
2021/04/27 13:46:14;;;;;;;9.80;9.03;;;32.10;22.40;;;;;;4941609;29;20481;-85
2021/04/27 13:48:40;;;;;;;9.10;8.27;;;31.80;21.70;;;;;;4941260;29;20472;-85
2021/04/27 13:51:10;;;;;;;8.10;7.40;;;31.60;22.40;;;;;;4941474;29;20465;-85
2021/04/27 13:53:37;;;;;;;10.70;9.60;;;32.00;22.80;;;;;;4941539;29;20497;-86
2021/04/27 13:56:06;;;;;;;9.70;8.67;;;31.80;21.60;;;;;;4943997;29;20457;-86
2021/04/27 13:58:32;;;;;;;10.47;9.67;;;31.90;21.80;;;;;;4946719;29;20467;-85
2021/04/27 14:00:59;;;;;;;8.10;7.50;;;31.10;21.70;;;;;;4942588;29;20466;-85
2021/04/27 14:03:27;;;;;;;10.27;9.07;;;30.90;22.60;;;;;;4942445;29;20463;-86
2021/04/27 14:05:53;;;;;;;8.17;7.47;;;31.10;23.50;;;;;;4939733;29;20483;-86
2021/04/27 14:08:20;;;;;;;8.33;7.53;;;31.20;23.00;;;;;;4943590;29;20457;-85
2021/04/27 14:10:48;;;;;;;8.23;7.43;;;31.60;23.30;;;;;;4943669;29;20455;-85
2021/04/27 14:13:14;;;;;;;7.60;7.00;;;32.30;23.20;;;;;;4944870;29;20488;-85
2021/04/27 14:15:43;;;;;;;8.97;8.10;;;33.00;22.80;;;;;;4944377;29;20463;-85
2021/04/27 14:18:11;;;;;;;8.20;7.50;;;33.70;22.10;;;;;;4945739;29;20512;-86
2021/04/27 14:20:39;;;;;;;8.97;8.27;;;34.30;21.90;;;;;;4945015;29;20446;-86
2021/04/27 14:23:11;;;;;;;9.17;8.37;;;34.70;21.90;;;;;;4943068;29;20456;-88
2021/04/27 14:25:38;;;;;;;8.93;8.23;;;35.30;20.80;;;;;;4936428;28;20461;-86
2021/04/27 14:28:05;;;;;;;8.93;8.07;;;35.60;19.70;;;;;;4936738;29;20478;-85
2021/04/27 14:58:00;;;;;;;8.93;8.13;;;35.10;20.20;;;;;;4802972;29;20480;-87
2021/04/27 15:08:14;;;;;;;10.50;9.67;;;35.80;19.40;;;;;;4928646;23;20496;-86
2021/04/27 15:10:42;;;;;;;9.67;8.97;;;34.80;19.30;;;;;;4925278;29;20527;-83
2021/04/27 15:13:08;;;;;;;10.53;8.03;;;33.90;18.80;;;;;;4940675;29;20489;-84
2021/04/27 15:15:35;;;;;;;9.60;8.63;;;33.60;19.40;;;;;;4940973;29;20947;-82
2021/04/27 15:18:02;;;;;;;8.70;8.00;;;33.50;19.80;;;;;;4939840;29;20485;-84
2021/04/27 15:20:29;;;;;;;9.80;9.10;;;33.10;19.80;;;;;;4939225;29;20461;-84
2021/04/27 15:22:56;;;;;;;8.43;7.47;;;32.50;19.90;;;;;;4937576;29;21108;-84
2021/04/27 15:25:23;;;;;;;8.57;7.87;;;32.70;21.50;;;;;;4941745;29;20463;-83
2021/04/27 15:27:54;;;;;;;8.57;7.87;;;33.00;21.10;;;;;;4943148;29;20469;-84
2021/04/27 15:30:21;;;;;;;7.33;6.83;;;33.00;20.00;;;;;;4941552;29;20540;-83
2021/04/27 15:32:47;;;;;;;9.63;8.73;;;32.80;20.70;;;;;;4940640;29;20496;-83
2021/04/27 15:35:15;;;;;;;8.00;7.47;;;32.90;20.70;;;;;;4940018;29;20462;-84
2021/04/27 15:37:43;;;;;;;9.30;8.60;;;33.00;20.80;;;;;;4940012;29;20551;-84
2021/04/27 15:40:13;;;;;;;9.00;8.10;;;33.10;20.40;;;;;;4941158;29;20956;-82
2021/04/27 15:42:41;;;;;;;9.87;9.07;;;32.90;19.40;;;;;;4923608;29;20465;-84
2021/04/27 15:45:10;;;;;;;10.57;9.67;;;32.20;19.60;;;;;;4938087;29;20534;-85
2021/04/27 15:47:49;;;;;;;9.23;8.43;;;31.90;20.20;;;;;;4936894;29;20509;-84
2021/04/27 15:50:19;;;;;;;9.07;8.17;;;31.50;20.10;;;;;;4936769;29;20461;-84
2021/04/27 15:52:46;;;;;;;9.00;8.20;;;31.70;20.70;;;;;;4923856;29;20491;-84
2021/04/27 15:55:14;;;;;;;8.87;8.27;;;32.00;20.30;;;;;;4940667;29;20830;-84
2021/04/27 15:57:41;;;;;;;8.73;8.03;;;32.20;21.00;;;;;;4940969;29;20477;-84
2021/04/27 16:00:11;;;;;;;8.30;7.70;;;32.40;21.10;;;;;;4947358;29;20459;-84
2021/04/27 16:02:38;;;;;;;9.10;6.90;;;32.80;20.60;;;;;;4942428;29;20524;-84
2021/04/27 16:05:05;;;;;;;7.77;7.17;;;33.30;20.40;;;;;;4938289;29;20499;-84
2021/04/27 16:07:31;;;;;;;9.20;8.30;;;33.80;19.90;;;;;;4936614;29;20497;-84
2021/04/27 16:09:58;;;;;;;9.47;8.70;;;34.10;19.40;;;;;;4936333;29;20458;-84
2021/04/27 16:12:24;;;;;;;8.03;7.27;;;34.30;19.40;;;;;;4934557;29;20570;-84
2021/04/27 16:14:50;;;;;;;9.20;8.50;;;34.70;19.60;;;;;;4934694;29;20556;-83
2021/04/27 16:17:17;;;;;;;8.33;7.63;;;35.10;18.60;;;;;;4935869;29;20486;-85
2021/04/27 16:19:44;;;;;;;8.70;8.03;;;35.40;18.50;;;;;;4932501;29;20453;-85
2021/04/27 16:22:11;;;;;;;8.40;7.70;;;35.60;18.40;;;;;;4931580;29;20454;-84
2021/04/27 16:24:37;;;;;;;9.10;8.40;;;35.40;18.20;;;;;;4937917;29;20458;-83
2021/04/27 16:27:03;;;;;;;8.57;7.97;;;35.10;18.10;;;;;;4938692;29;20484;-83
2021/04/27 16:29:30;;;;;;;9.27;8.47;;;34.90;18.40;;;;;;4939362;29;20845;-83
2021/04/27 16:31:56;;;;;;;8.40;7.80;;;34.80;18.70;;;;;;4935380;29;20457;-84
2021/04/27 16:34:23;;;;;;;8.03;7.53;;;34.80;18.80;;;;;;4939202;29;20842;-84
2021/04/27 16:36:50;;;;;;;7.90;7.30;;;34.80;18.60;;;;;;4937132;29;20486;-83
2021/04/27 16:39:16;;;;;;;7.93;7.43;;;35.00;18.80;;;;;;4938769;29;20508;-82